sensor_id;sensor_type;location;lat;lon;timestamp;pressure;altitude;pressure_sealevel;temperature;humidity
18436;BME280;9346;52.006;4.720;2023-03-09T00:00:21;99073.56;;;2.26;100.00
18436;BME280;9346;52.006;4.720;2023-03-09T00:02:48;99074.06;;;2.23;100.00
18436;BME280;9346;52.006;4.720;2023-03-09T00:05:15;99085.78;;;2.23;100.00
18436;BME280;9346;52.006;4.720;2023-03-09T00:07:44;99083.59;;;2.25;100.00
18436;BME280;9346;52.006;4.720;2023-03-09T00:10:14;99086.31;;;2.25;100.00
18436;BME280;9346;52.006;4.720;2023-03-09T00:12:41;99095.28;;;2.26;100.00
18436;BME280;9346;52.006;4.720;2023-03-09T00:15:09;99081.44;;;2.27;100.00
18436;BME280;9346;52.006;4.720;2023-03-09T00:17:37;99088.25;;;2.30;100.00
18436;BME280;9346;52.006;4.720;2023-03-09T00:20:06;99093.94;;;2.28;100.00
18436;BME280;9346;52.006;4.720;2023-03-09T00:22:43;99101.75;;;2.20;100.00
18436;BME280;9346;52.006;4.720;2023-03-09T00:25:15;99101.22;;;2.18;100.00
18436;BME280;9346;52.006;4.720;2023-03-09T00:27:42;99092.53;;;2.21;100.00
18436;BME280;9346;52.006;4.720;2023-03-09T00:30:13;99102.34;;;2.22;100.00
18436;BME280;9346;52.006;4.720;2023-03-09T00:32:40;99115.91;;;2.22;100.00
18436;BME280;9346;52.006;4.720;2023-03-09T00:35:07;99126.72;;;2.17;100.00
18436;BME280;9346;52.006;4.720;2023-03-09T00:37:35;99132.69;;;2.14;100.00
18436;BME280;9346;52.006;4.720;2023-03-09T00:40:04;99135.72;;;2.17;100.00
18436;BME280;9346;52.006;4.720;2023-03-09T00:42:37;99149.88;;;2.24;100.00
18436;BME280;9346;52.006;4.720;2023-03-09T00:45:05;99145.81;;;2.27;100.00
18436;BME280;9346;52.006;4.720;2023-03-09T00:47:32;99138.22;;;2.29;100.00
18436;BME280;9346;52.006;4.720;2023-03-09T00:49:59;99119.22;;;2.29;100.00
18436;BME280;9346;52.006;4.720;2023-03-09T00:52:26;99117.88;;;2.31;100.00
18436;BME280;9346;52.006;4.720;2023-03-09T00:54:53;99123.88;;;2.33;100.00
18436;BME280;9346;52.006;4.720;2023-03-09T00:57:20;99143.97;;;2.33;100.00
18436;BME280;9346;52.006;4.720;2023-03-09T00:59:50;99144.50;;;2.29;100.00
18436;BME280;9346;52.006;4.720;2023-03-09T01:02:18;99136.88;;;2.31;100.00
18436;BME280;9346;52.006;4.720;2023-03-09T01:04:45;99132.84;;;2.34;100.00
18436;BME280;9346;52.006;4.720;2023-03-09T01:07:13;99132.28;;;2.32;100.00
18436;BME280;9346;52.006;4.720;2023-03-09T01:09:40;99130.66;;;2.31;100.00
18436;BME280;9346;52.006;4.720;2023-03-09T01:12:07;99139.34;;;2.33;100.00
18436;BME280;9346;52.006;4.720;2023-03-09T01:14:35;99129.03;;;2.35;100.00
18436;BME280;9346;52.006;4.720;2023-03-09T01:17:03;99144.81;;;2.38;100.00
18436;BME280;9346;52.006;4.720;2023-03-09T01:19:33;99165.72;;;2.38;100.00
18436;BME280;9346;52.006;4.720;2023-03-09T01:22:00;99160.53;;;2.31;100.00
18436;BME280;9346;52.006;4.720;2023-03-09T01:24:27;99161.31;;;2.26;100.00
18436;BME280;9346;52.006;4.720;2023-03-09T01:26:54;99178.13;;;2.23;100.00
18436;BME280;9346;52.006;4.720;2023-03-09T01:29:21;99191.97;;;2.22;100.00
18436;BME280;9346;52.006;4.720;2023-03-09T01:31:48;99195.47;;;2.22;100.00
18436;BME280;9346;52.006;4.720;2023-03-09T01:34:17;99185.72;;;2.21;100.00
18436;BME280;9346;52.006;4.720;2023-03-09T01:36:44;99184.63;;;2.22;100.00
18436;BME280;9346;52.006;4.720;2023-03-09T01:39:11;99180.00;;;2.18;100.00
18436;BME280;9346;52.006;4.720;2023-03-09T01:41:38;99171.84;;;2.18;100.00
18436;BME280;9346;52.006;4.720;2023-03-09T01:44:05;99160.16;;;2.22;100.00
18436;BME280;9346;52.006;4.720;2023-03-09T01:46:47;99165.91;;;2.26;100.00
18436;BME280;9346;52.006;4.720;2023-03-09T01:49:33;99169.19;;;2.28;100.00
18436;BME280;9346;52.006;4.720;2023-03-09T01:52:06;99173.53;;;2.29;100.00
18436;BME280;9346;52.006;4.720;2023-03-09T01:54:37;99182.78;;;2.28;100.00
18436;BME280;9346;52.006;4.720;2023-03-09T01:57:13;99208.25;;;2.22;100.00
18436;BME280;9346;52.006;4.720;2023-03-09T01:59:43;99200.88;;;2.17;100.00
18436;BME280;9346;52.006;4.720;2023-03-09T02:02:12;99203.28;;;2.14;100.00
18436;BME280;9346;52.006;4.720;2023-03-09T02:04:45;99200.06;;;2.17;100.00
18436;BME280;9346;52.006;4.720;2023-03-09T02:07:15;99199.25;;;2.16;100.00
18436;BME280;9346;52.006;4.720;2023-03-09T02:09:47;99208.44;;;2.10;100.00
18436;BME280;9346;52.006;4.720;2023-03-09T02:12:18;99201.59;;;2.08;100.00
18436;BME280;9346;52.006;4.720;2023-03-09T02:14:46;99215.44;;;2.06;100.00
18436;BME280;9346;52.006;4.720;2023-03-09T02:17:13;99224.94;;;2.04;100.00
18436;BME280;9346;52.006;4.720;2023-03-09T02:20:04;99221.16;;;2.05;100.00
18436;BME280;9346;52.006;4.720;2023-03-09T02:22:35;99209.22;;;2.06;100.00
18436;BME280;9346;52.006;4.720;2023-03-09T02:25:10;99226.06;;;2.08;100.00
18436;BME280;9346;52.006;4.720;2023-03-09T02:27:42;99214.72;;;2.16;100.00
18436;BME280;9346;52.006;4.720;2023-03-09T02:30:12;99211.25;;;2.20;100.00
18436;BME280;9346;52.006;4.720;2023-03-09T02:32:39;99211.78;;;2.22;100.00
18436;BME280;9346;52.006;4.720;2023-03-09T02:35:06;99229.47;;;2.25;100.00
18436;BME280;9346;52.006;4.720;2023-03-09T02:37:37;99230.59;;;2.29;100.00
18436;BME280;9346;52.006;4.720;2023-03-09T02:40:11;99242.81;;;2.26;100.00
18436;BME280;9346;52.006;4.720;2023-03-09T02:42:39;99239.53;;;2.24;100.00
18436;BME280;9346;52.006;4.720;2023-03-09T02:45:10;99246.56;;;2.25;100.00
18436;BME280;9346;52.006;4.720;2023-03-09T02:47:38;99234.41;;;2.28;100.00
18436;BME280;9346;52.006;4.720;2023-03-09T02:50:06;99224.66;;;2.32;100.00
18436;BME280;9346;52.006;4.720;2023-03-09T02:52:34;99224.66;;;2.37;100.00
18436;BME280;9346;52.006;4.720;2023-03-09T02:55:02;99229.03;;;2.38;100.00
18436;BME280;9346;52.006;4.720;2023-03-09T02:57:29;99233.97;;;2.41;100.00
18436;BME280;9346;52.006;4.720;2023-03-09T02:59:56;99235.84;;;2.41;100.00
18436;BME280;9346;52.006;4.720;2023-03-09T03:02:25;99244.31;;;2.44;100.00
18436;BME280;9346;52.006;4.720;2023-03-09T03:04:52;99243.75;;;2.42;100.00
18436;BME280;9346;52.006;4.720;2023-03-09T03:07:20;99247.81;;;2.45;100.00
18436;BME280;9346;52.006;4.720;2023-03-09T03:09:47;99256.28;;;2.48;100.00
18436;BME280;9346;52.006;4.720;2023-03-09T03:12:14;99253.31;;;2.50;100.00
18436;BME280;9346;52.006;4.720;2023-03-09T03:14:43;99254.94;;;2.51;100.00
18436;BME280;9346;52.006;4.720;2023-03-09T03:17:10;99254.69;;;2.52;100.00
18436;BME280;9346;52.006;4.720;2023-03-09T03:19:38;99251.72;;;2.54;100.00
18436;BME280;9346;52.006;4.720;2023-03-09T03:22:06;99260.13;;;2.52;100.00
18436;BME280;9346;52.006;4.720;2023-03-09T03:24:35;99255.50;;;2.53;100.00
18436;BME280;9346;52.006;4.720;2023-03-09T03:27:02;99252.78;;;2.53;100.00
18436;BME280;9346;52.006;4.720;2023-03-09T03:29:29;99266.38;;;2.53;100.00
18436;BME280;9346;52.006;4.720;2023-03-09T03:31:58;99262.56;;;2.54;100.00
18436;BME280;9346;52.006;4.720;2023-03-09T03:34:25;99262.84;;;2.52;100.00
18436;BME280;9346;52.006;4.720;2023-03-09T03:36:53;99280.78;;;2.53;100.00
18436;BME280;9346;52.006;4.720;2023-03-09T03:39:20;99286.22;;;2.53;100.00
18436;BME280;9346;52.006;4.720;2023-03-09T03:41:47;99293.31;;;2.54;100.00
18436;BME280;9346;52.006;4.720;2023-03-09T03:44:14;99274.53;;;2.53;100.00
18436;BME280;9346;52.006;4.720;2023-03-09T03:46:41;99281.84;;;2.52;100.00
18436;BME280;9346;52.006;4.720;2023-03-09T03:49:08;99274.78;;;2.51;100.00
18436;BME280;9346;52.006;4.720;2023-03-09T03:51:35;99278.03;;;2.48;100.00
18436;BME280;9346;52.006;4.720;2023-03-09T03:54:04;99288.59;;;2.45;100.00
18436;BME280;9346;52.006;4.720;2023-03-09T03:56:31;99293.22;;;2.44;100.00
18436;BME280;9346;52.006;4.720;2023-03-09T03:58:59;99305.72;;;2.45;100.00
18436;BME280;9346;52.006;4.720;2023-03-09T04:01:26;99315.75;;;2.45;100.00
18436;BME280;9346;52.006;4.720;2023-03-09T04:03:53;99323.66;;;2.46;100.00
18436;BME280;9346;52.006;4.720;2023-03-09T04:06:20;99333.72;;;2.46;100.00
18436;BME280;9346;52.006;4.720;2023-03-09T04:08:46;99337.00;;;2.48;100.00
18436;BME280;9346;52.006;4.720;2023-03-09T04:11:16;99343.25;;;2.48;100.00
18436;BME280;9346;52.006;4.720;2023-03-09T04:13:46;99348.19;;;2.51;100.00
18436;BME280;9346;52.006;4.720;2023-03-09T04:16:13;99359.34;;;2.55;100.00
18436;BME280;9346;52.006;4.720;2023-03-09T04:18:40;99355.56;;;2.56;100.00
18436;BME280;9346;52.006;4.720;2023-03-09T04:21:07;99363.19;;;2.59;100.00
18436;BME280;9346;52.006;4.720;2023-03-09T04:23:34;99370.25;;;2.60;100.00
18436;BME280;9346;52.006;4.720;2023-03-09T04:26:03;99366.72;;;2.59;100.00
18436;BME280;9346;52.006;4.720;2023-03-09T04:28:32;99367.81;;;2.58;100.00
18436;BME280;9346;52.006;4.720;2023-03-09T04:30:59;99369.94;;;2.56;100.00
18436;BME280;9346;52.006;4.720;2023-03-09T04:33:26;99378.31;;;2.50;100.00
18436;BME280;9346;52.006;4.720;2023-03-09T04:35:53;99370.09;;;2.45;100.00
18436;BME280;9346;52.006;4.720;2023-03-09T04:38:20;99375.88;;;2.48;100.00
18436;BME280;9346;52.006;4.720;2023-03-09T04:40:47;99382.41;;;2.52;100.00
18436;BME280;9346;52.006;4.720;2023-03-09T04:43:14;99375.63;;;2.55;100.00
18436;BME280;9346;52.006;4.720;2023-03-09T04:45:43;99379.19;;;2.55;100.00
18436;BME280;9346;52.006;4.720;2023-03-09T04:48:10;99384.38;;;2.57;100.00
18436;BME280;9346;52.006;4.720;2023-03-09T04:50:37;99398.22;;;2.55;100.00
18436;BME280;9346;52.006;4.720;2023-03-09T04:53:04;99385.19;;;2.57;100.00
18436;BME280;9346;52.006;4.720;2023-03-09T04:55:31;99393.09;;;2.59;100.00
18436;BME280;9346;52.006;4.720;2023-03-09T04:57:58;99407.22;;;2.61;100.00
18436;BME280;9346;52.006;4.720;2023-03-09T05:00:25;99397.75;;;2.63;100.00
18436;BME280;9346;52.006;4.720;2023-03-09T05:02:54;99399.66;;;2.63;100.00
18436;BME280;9346;52.006;4.720;2023-03-09T05:05:21;99397.47;;;2.65;100.00
18436;BME280;9346;52.006;4.720;2023-03-09T05:07:48;99391.25;;;2.64;100.00
18436;BME280;9346;52.006;4.720;2023-03-09T05:10:16;99394.75;;;2.65;100.00
18436;BME280;9346;52.006;4.720;2023-03-09T05:12:42;99396.69;;;2.64;100.00
18436;BME280;9346;52.006;4.720;2023-03-09T05:15:10;99387.69;;;2.64;100.00
18436;BME280;9346;52.006;4.720;2023-03-09T05:17:37;99391.44;;;2.58;100.00
18436;BME280;9346;52.006;4.720;2023-03-09T05:20:08;99386.50;;;2.55;100.00
18436;BME280;9346;52.006;4.720;2023-03-09T05:22:36;99388.97;;;2.56;100.00
18436;BME280;9346;52.006;4.720;2023-03-09T05:25:04;99385.19;;;2.57;100.00
18436;BME280;9346;52.006;4.720;2023-03-09T05:27:31;99384.69;;;2.60;100.00
18436;BME280;9346;52.006;4.720;2023-03-09T05:29:58;99390.91;;;2.61;100.00
18436;BME280;9346;52.006;4.720;2023-03-09T05:32:25;99397.44;;;2.60;100.00
18436;BME280;9346;52.006;4.720;2023-03-09T05:34:52;99409.16;;;2.60;100.00
18436;BME280;9346;52.006;4.720;2023-03-09T05:37:21;99418.41;;;2.64;100.00
18436;BME280;9346;52.006;4.720;2023-03-09T05:39:48;99423.59;;;2.66;100.00
18436;BME280;9346;52.006;4.720;2023-03-09T05:42:16;99415.97;;;2.63;100.00
18436;BME280;9346;52.006;4.720;2023-03-09T05:44:43;99422.50;;;2.62;100.00
18436;BME280;9346;52.006;4.720;2023-03-09T05:47:11;99432.81;;;2.65;100.00
18436;BME280;9346;52.006;4.720;2023-03-09T05:49:38;99439.91;;;2.66;100.00
18436;BME280;9346;52.006;4.720;2023-03-09T05:52:05;99447.25;;;2.65;100.00
18436;BME280;9346;52.006;4.720;2023-03-09T05:54:33;99448.06;;;2.66;100.00
18436;BME280;9346;52.006;4.720;2023-03-09T05:57:00;99446.16;;;2.66;100.00
18436;BME280;9346;52.006;4.720;2023-03-09T05:59:27;99439.66;;;2.67;100.00
18436;BME280;9346;52.006;4.720;2023-03-09T06:01:54;99436.69;;;2.69;100.00
18436;BME280;9346;52.006;4.720;2023-03-09T06:04:21;99439.41;;;2.69;100.00
18436;BME280;9346;52.006;4.720;2023-03-09T06:06:48;99441.28;;;2.68;100.00
18436;BME280;9346;52.006;4.720;2023-03-09T06:09:16;99446.22;;;2.71;100.00
18436;BME280;9346;52.006;4.720;2023-03-09T06:11:44;99454.13;;;2.73;100.00
18436;BME280;9346;52.006;4.720;2023-03-09T06:14:11;99465.25;;;2.71;100.00
18436;BME280;9346;52.006;4.720;2023-03-09T06:16:39;99464.66;;;2.69;100.00
18436;BME280;9346;52.006;4.720;2023-03-09T06:19:06;99478.53;;;2.68;100.00
18436;BME280;9346;52.006;4.720;2023-03-09T06:21:33;99483.16;;;2.67;100.00
18436;BME280;9346;52.006;4.720;2023-03-09T06:24:00;99498.13;;;2.70;100.00
18436;BME280;9346;52.006;4.720;2023-03-09T06:26:27;99497.88;;;2.71;100.00
18436;BME280;9346;52.006;4.720;2023-03-09T06:28:56;99495.47;;;2.75;100.00
18436;BME280;9346;52.006;4.720;2023-03-09T06:31:23;99510.44;;;2.77;100.00
18436;BME280;9346;52.006;4.720;2023-03-09T06:33:50;99514.28;;;2.81;100.00
18436;BME280;9346;52.006;4.720;2023-03-09T06:36:17;99508.81;;;2.76;100.00
18436;BME280;9346;52.006;4.720;2023-03-09T06:38:45;99516.41;;;2.74;100.00
18436;BME280;9346;52.006;4.720;2023-03-09T06:41:12;99519.94;;;2.75;100.00
18436;BME280;9346;52.006;4.720;2023-03-09T06:43:40;99521.84;;;2.74;100.00
18436;BME280;9346;52.006;4.720;2023-03-09T06:46:09;99521.84;;;2.74;100.00
18436;BME280;9346;52.006;4.720;2023-03-09T06:48:36;99527.84;;;2.76;100.00
18436;BME280;9346;52.006;4.720;2023-03-09T06:51:03;99524.81;;;2.73;100.00
18436;BME280;9346;52.006;4.720;2023-03-09T06:53:30;99530.25;;;2.73;100.00
18436;BME280;9346;52.006;4.720;2023-03-09T06:55:59;99534.84;;;2.72;100.00
18436;BME280;9346;52.006;4.720;2023-03-09T06:58:26;99547.91;;;2.70;100.00
18436;BME280;9346;52.006;4.720;2023-03-09T07:00:53;99560.41;;;2.71;100.00
18436;BME280;9346;52.006;4.720;2023-03-09T07:03:24;99556.59;;;2.72;100.00
18436;BME280;9346;52.006;4.720;2023-03-09T07:05:51;99562.03;;;2.72;100.00
18436;BME280;9346;52.006;4.720;2023-03-09T07:08:18;99548.19;;;2.74;100.00
18436;BME280;9346;52.006;4.720;2023-03-09T07:10:44;99540.59;;;2.76;100.00
18436;BME280;9346;52.006;4.720;2023-03-09T07:13:12;99559.38;;;2.77;100.00
18436;BME280;9346;52.006;4.720;2023-03-09T07:15:40;99570.25;;;2.77;100.00
18436;BME280;9346;52.006;4.720;2023-03-09T07:18:07;99572.66;;;2.74;100.00
18436;BME280;9346;52.006;4.720;2023-03-09T07:20:37;99587.91;;;2.75;100.00
18436;BME280;9346;52.006;4.720;2023-03-09T07:23:05;99591.75;;;2.79;100.00
18436;BME280;9346;52.006;4.720;2023-03-09T07:25:32;99591.81;;;2.84;100.00
18436;BME280;9346;52.006;4.720;2023-03-09T07:28:01;99589.41;;;2.87;100.00
18436;BME280;9346;52.006;4.720;2023-03-09T07:30:29;99595.94;;;2.86;100.00
18436;BME280;9346;52.006;4.720;2023-03-09T07:32:56;99606.81;;;2.86;100.00
18436;BME280;9346;52.006;4.720;2023-03-09T07:35:24;99604.09;;;2.86;100.00
18436;BME280;9346;52.006;4.720;2023-03-09T07:37:52;99603.84;;;2.88;100.00
18436;BME280;9346;52.006;4.720;2023-03-09T07:40:20;99602.19;;;2.87;100.00
18436;BME280;9346;52.006;4.720;2023-03-09T07:42:48;99612.81;;;2.88;100.00
18436;BME280;9346;52.006;4.720;2023-03-09T07:45:18;99626.47;;;2.93;100.00
18436;BME280;9346;52.006;4.720;2023-03-09T07:47:45;99620.22;;;2.93;100.00
18436;BME280;9346;52.006;4.720;2023-03-09T07:50:12;99615.84;;;2.92;100.00
18436;BME280;9346;52.006;4.720;2023-03-09T07:52:40;99614.50;;;2.94;100.00
18436;BME280;9346;52.006;4.720;2023-03-09T07:55:11;99627.84;;;2.96;100.00
18436;BME280;9346;52.006;4.720;2023-03-09T07:57:38;99630.84;;;2.94;100.00
18436;BME280;9346;52.006;4.720;2023-03-09T08:00:08;99620.28;;;2.98;100.00
18436;BME280;9346;52.006;4.720;2023-03-09T08:02:38;99623.00;;;2.98;100.00
18436;BME280;9346;52.006;4.720;2023-03-09T08:05:07;99630.06;;;2.99;100.00
18436;BME280;9346;52.006;4.720;2023-03-09T08:07:34;99636.91;;;3.01;100.00
18436;BME280;9346;52.006;4.720;2023-03-09T08:10:02;99639.69;;;3.06;100.00
18436;BME280;9346;52.006;4.720;2023-03-09T08:12:31;99638.84;;;3.06;100.00
18436;BME280;9346;52.006;4.720;2023-03-09T08:14:58;99631.53;;;3.06;100.00
18436;BME280;9346;52.006;4.720;2023-03-09T08:17:25;99623.66;;;3.10;100.00
18436;BME280;9346;52.006;4.720;2023-03-09T08:19:53;99622.91;;;3.14;100.00
18436;BME280;9346;52.006;4.720;2023-03-09T08:22:19;99630.81;;;3.16;100.00
18436;BME280;9346;52.006;4.720;2023-03-09T08:24:47;99636.88;;;3.23;100.00
18436;BME280;9346;52.006;4.720;2023-03-09T08:27:13;99641.53;;;3.27;100.00
18436;BME280;9346;52.006;4.720;2023-03-09T08:29:42;99642.69;;;3.31;100.00
18436;BME280;9346;52.006;4.720;2023-03-09T08:32:10;99647.63;;;3.34;100.00
18436;BME280;9346;52.006;4.720;2023-03-09T08:34:37;99647.66;;;3.39;100.00
18436;BME280;9346;52.006;4.720;2023-03-09T08:37:04;99659.44;;;3.45;100.00
18436;BME280;9346;52.006;4.720;2023-03-09T08:39:31;99668.25;;;3.52;100.00
18436;BME280;9346;52.006;4.720;2023-03-09T08:41:58;99672.84;;;3.51;100.00
18436;BME280;9346;52.006;4.720;2023-03-09T08:44:25;99678.28;;;3.51;100.00
18436;BME280;9346;52.006;4.720;2023-03-09T08:46:53;99679.38;;;3.50;100.00
18436;BME280;9346;52.006;4.720;2023-03-09T08:49:20;99680.44;;;3.49;100.00
18436;BME280;9346;52.006;4.720;2023-03-09T08:51:47;99691.66;;;3.53;100.00
18436;BME280;9346;52.006;4.720;2023-03-09T08:54:15;99691.91;;;3.51;100.00
18436;BME280;9346;52.006;4.720;2023-03-09T08:56:42;99700.09;;;3.56;100.00
18436;BME280;9346;52.006;4.720;2023-03-09T08:59:09;99693.13;;;3.65;100.00
18436;BME280;9346;52.006;4.720;2023-03-09T09:01:36;99683.91;;;3.66;100.00
18436;BME280;9346;52.006;4.720;2023-03-09T09:04:05;99694.25;;;3.69;100.00
18436;BME280;9346;52.006;4.720;2023-03-09T09:06:32;99703.31;;;3.75;100.00
18436;BME280;9346;52.006;4.720;2023-03-09T09:08:59;99704.44;;;3.79;100.00
18436;BME280;9346;52.006;4.720;2023-03-09T09:11:26;99694.38;;;3.79;100.00
18436;BME280;9346;52.006;4.720;2023-03-09T09:13:53;99695.75;;;3.82;100.00
18436;BME280;9346;52.006;4.720;2023-03-09T09:16:20;99701.22;;;3.82;100.00
18436;BME280;9346;52.006;4.720;2023-03-09T09:18:47;99706.44;;;3.88;100.00
18436;BME280;9346;52.006;4.720;2023-03-09T09:21:16;99693.72;;;3.94;100.00
18436;BME280;9346;52.006;4.720;2023-03-09T09:23:44;99686.91;;;3.96;100.00
18436;BME280;9346;52.006;4.720;2023-03-09T09:26:11;99701.88;;;3.94;100.00
18436;BME280;9346;52.006;4.720;2023-03-09T09:28:40;99699.41;;;3.92;100.00
18436;BME280;9346;52.006;4.720;2023-03-09T09:31:10;99708.38;;;3.93;100.00
18436;BME280;9346;52.006;4.720;2023-03-09T09:33:38;99708.97;;;3.95;100.00
18436;BME280;9346;52.006;4.720;2023-03-09T09:36:08;99727.78;;;3.96;100.00
18436;BME280;9346;52.006;4.720;2023-03-09T09:38:38;99741.44;;;4.01;100.00
18436;BME280;9346;52.006;4.720;2023-03-09T09:41:12;99741.50;;;4.06;100.00
18436;BME280;9346;52.006;4.720;2023-03-09T09:43:42;99740.91;;;4.04;100.00
18436;BME280;9346;52.006;4.720;2023-03-09T09:46:12;99734.34;;;4.00;100.00
18436;BME280;9346;52.006;4.720;2023-03-09T09:48:42;99723.97;;;3.97;100.00
18436;BME280;9346;52.006;4.720;2023-03-09T09:51:17;99731.03;;;3.98;100.00
18436;BME280;9346;52.006;4.720;2023-03-09T09:53:59;99726.75;;;4.02;100.00
18436;BME280;9346;52.006;4.720;2023-03-09T09:56:33;99722.41;;;4.06;100.00
18436;BME280;9346;52.006;4.720;2023-03-09T09:59:05;99724.88;;;4.08;100.00
18436;BME280;9346;52.006;4.720;2023-03-09T10:01:39;99726.25;;;4.10;100.00
18436;BME280;9346;52.006;4.720;2023-03-09T10:04:17;99720.03;;;4.15;100.00
18436;BME280;9346;52.006;4.720;2023-03-09T10:06:48;99714.31;;;4.16;100.00
18436;BME280;9346;52.006;4.720;2023-03-09T10:09:21;99719.84;;;4.21;100.00
18436;BME280;9346;52.006;4.720;2023-03-09T10:11:52;99716.31;;;4.26;100.00
18436;BME280;9346;52.006;4.720;2023-03-09T10:14:27;99704.34;;;4.27;100.00
18436;BME280;9346;52.006;4.720;2023-03-09T10:16:58;99695.66;;;4.30;100.00
18436;BME280;9346;52.006;4.720;2023-03-09T10:19:30;99705.19;;;4.32;100.00
18436;BME280;9346;52.006;4.720;2023-03-09T10:22:00;99695.38;;;4.31;100.00
18436;BME280;9346;52.006;4.720;2023-03-09T10:24:35;99699.75;;;4.32;100.00
18436;BME280;9346;52.006;4.720;2023-03-09T10:27:11;99696.69;;;4.29;100.00
18436;BME280;9346;52.006;4.720;2023-03-09T10:29:43;99699.66;;;4.22;100.00
18436;BME280;9346;52.006;4.720;2023-03-09T10:32:19;99706.41;;;4.15;100.00
18436;BME280;9346;52.006;4.720;2023-03-09T10:34:54;99702.59;;;4.16;100.00
18436;BME280;9346;52.006;4.720;2023-03-09T10:37:23;99715.41;;;4.15;100.00
18436;BME280;9346;52.006;4.720;2023-03-09T10:39:52;99722.19;;;4.13;100.00
18436;BME280;9346;52.006;4.720;2023-03-09T10:42:21;99714.84;;;4.13;100.00
18436;BME280;9346;52.006;4.720;2023-03-09T10:44:59;99718.16;;;4.15;100.00
18436;BME280;9346;52.006;4.720;2023-03-09T10:47:50;99726.34;;;4.20;100.00
18436;BME280;9346;52.006;4.720;2023-03-09T10:50:18;99732.38;;;4.22;100.00
18436;BME280;9346;52.006;4.720;2023-03-09T10:52:46;99729.94;;;4.26;100.00
18436;BME280;9346;52.006;4.720;2023-03-09T10:55:48;99732.66;;;4.26;100.00
18436;BME280;9346;52.006;4.720;2023-03-09T10:58:18;99734.53;;;4.20;100.00
18436;BME280;9346;52.006;4.720;2023-03-09T11:00:53;99746.00;;;4.22;100.00
18436;BME280;9346;52.006;4.720;2023-03-09T11:03:22;99738.59;;;4.18;100.00
18436;BME280;9346;52.006;4.720;2023-03-09T11:05:50;99745.13;;;4.17;100.00
18436;BME280;9346;52.006;4.720;2023-03-09T11:08:23;99740.47;;;4.12;100.00
18436;BME280;9346;52.006;4.720;2023-03-09T11:11:02;99739.63;;;4.12;100.00
18436;BME280;9346;52.006;4.720;2023-03-09T11:13:30;99735.53;;;4.09;100.00
18436;BME280;9346;52.006;4.720;2023-03-09T11:16:10;99737.38;;;4.04;100.00
18436;BME280;9346;52.006;4.720;2023-03-09T11:18:40;99737.91;;;4.01;100.00
18436;BME280;9346;52.006;4.720;2023-03-09T11:21:07;99740.31;;;3.97;100.00
18436;BME280;9346;52.006;4.720;2023-03-09T11:23:38;99739.47;;;3.97;100.00
18436;BME280;9346;52.006;4.720;2023-03-09T11:26:14;99730.78;;;4.00;100.00
18436;BME280;9346;52.006;4.720;2023-03-09T11:28:54;99732.19;;;4.02;100.00
18436;BME280;9346;52.006;4.720;2023-03-09T11:31:25;99735.19;;;4.01;100.00
18436;BME280;9346;52.006;4.720;2023-03-09T11:33:54;99731.88;;;3.99;100.00
18436;BME280;9346;52.006;4.720;2023-03-09T11:36:29;99738.97;;;4.00;100.00
18436;BME280;9346;52.006;4.720;2023-03-09T11:39:00;99735.69;;;3.98;100.00
18436;BME280;9346;52.006;4.720;2023-03-09T11:41:32;99730.25;;;3.98;100.00
18436;BME280;9346;52.006;4.720;2023-03-09T11:44:03;99728.31;;;3.98;100.00
18436;BME280;9346;52.006;4.720;2023-03-09T11:46:33;99727.78;;;3.96;100.00
18436;BME280;9346;52.006;4.720;2023-03-09T11:49:06;99727.72;;;3.91;100.00
18436;BME280;9346;52.006;4.720;2023-03-09T11:51:37;99730.16;;;3.88;100.00
18436;BME280;9346;52.006;4.720;2023-03-09T11:54:16;99722.16;;;3.81;100.00
18436;BME280;9346;52.006;4.720;2023-03-09T11:56:47;99721.63;;;3.79;100.00
18436;BME280;9346;52.006;4.720;2023-03-09T11:59:18;99719.69;;;3.80;100.00
18436;BME280;9346;52.006;4.720;2023-03-09T12:01:50;99717.56;;;3.82;100.00
18436;BME280;9346;52.006;4.720;2023-03-09T12:04:19;99714.81;;;3.82;100.00
18436;BME280;9346;52.006;4.720;2023-03-09T12:06:52;99708.53;;;3.81;100.00
18436;BME280;9346;52.006;4.720;2023-03-09T12:09:30;99711.34;;;3.86;100.00
18436;BME280;9346;52.006;4.720;2023-03-09T12:12:10;99710.81;;;3.89;100.00
18436;BME280;9346;52.006;4.720;2023-03-09T12:14:48;99713.53;;;3.89;100.00
18436;BME280;9346;52.006;4.720;2023-03-09T12:17:20;99714.81;;;3.82;100.00
18436;BME280;9346;52.006;4.720;2023-03-09T12:19:50;99712.25;;;3.70;100.00
18436;BME280;9346;52.006;4.720;2023-03-09T12:22:24;99716.25;;;3.63;100.00
18436;BME280;9346;52.006;4.720;2023-03-09T12:24:54;99703.66;;;3.57;100.00
18436;BME280;9346;52.006;4.720;2023-03-09T12:27:25;99706.66;;;3.55;100.00
18436;BME280;9346;52.006;4.720;2023-03-09T12:29:54;99705.03;;;3.59;100.00
18436;BME280;9346;52.006;4.720;2023-03-09T12:32:40;99697.63;;;3.55;100.00
18436;BME280;9346;52.006;4.720;2023-03-09T12:38:25;99661.72;;;3.53;100.00
18436;BME280;9346;52.006;4.720;2023-03-09T12:40:53;99649.72;;;3.54;100.00
18436;BME280;9346;52.006;4.720;2023-03-09T12:43:43;99644.09;;;3.60;100.00
18436;BME280;9346;52.006;4.720;2023-03-09T12:49:26;99620.28;;;3.51;100.00
18436;BME280;9346;52.006;4.720;2023-03-09T12:52:12;99617.06;;;3.54;100.00
18436;BME280;9346;52.006;4.720;2023-03-09T12:54:40;99620.56;;;3.49;100.00
18436;BME280;9346;52.006;4.720;2023-03-09T12:57:10;99628.72;;;3.49;100.00
18436;BME280;9346;52.006;4.720;2023-03-09T12:59:43;99636.63;;;3.51;100.00
18436;BME280;9346;52.006;4.720;2023-03-09T13:02:32;99642.91;;;3.51;100.00
18436;BME280;9346;52.006;4.720;2023-03-09T13:05:19;99644.00;;;3.50;100.00
18436;BME280;9346;52.006;4.720;2023-03-09T13:08:01;99645.06;;;3.49;100.00
18436;BME280;9346;52.006;4.720;2023-03-09T13:10:31;99651.84;;;3.47;100.00
18436;BME280;9346;52.006;4.720;2023-03-09T13:13:32;99658.72;;;3.54;100.00
18436;BME280;9346;52.006;4.720;2023-03-09T13:19:39;99660.47;;;3.65;100.00
18436;BME280;9346;52.006;4.720;2023-03-09T13:22:17;99653.41;;;3.69;100.00
18436;BME280;9346;52.006;4.720;2023-03-09T13:24:45;99653.72;;;3.73;100.00
18436;BME280;9346;52.006;4.720;2023-03-09T13:27:18;99649.91;;;3.74;100.00
18436;BME280;9346;52.006;4.720;2023-03-09T13:29:50;99654.56;;;3.73;100.00
18436;BME280;9346;52.006;4.720;2023-03-09T13:32:24;99661.06;;;3.72;100.00